Time;durP1;ratioP1;P1;durP2;ratioP2;P2;SDS_P1;SDS_P2;PMS_P1;PMS_P2;Temp;Humidity;BMP_temperature;BMP_pressure;BME280_temperature;BME280_humidity;BME280_pressure;Samples;Min_cycle;Max_cycle;Signal;HPM_P1;HPM_P2
2021/10/01 00:00:06;;;;;;;12.60;5.60;;;;;;;8.33;53.83;100952.18;27205;1219;3026234;-70
2021/10/01 00:02:36;;;;;;;12.00;6.70;;;;;;;8.29;53.95;100954.04;27194;1220;3025804;-71
2021/10/01 00:05:06;;;;;;;12.60;6.20;;;;;;;8.30;53.75;100953.13;27230;1219;3025997;-70
2021/10/01 00:07:35;;;;;;;13.40;6.90;;;;;;;8.29;53.86;100953.52;27251;1218;3027355;-70
2021/10/01 00:10:04;;;;;;;17.20;8.80;;;;;;;8.23;54.17;100954.37;27229;1203;3026379;-69
2021/10/01 00:12:33;;;;;;;27.20;17.20;;;;;;;8.19;54.10;100955.69;27247;1218;3070054;-71
2021/10/01 00:15:03;;;;;;;24.50;12.10;;;;;;;8.19;54.16;100954.10;27256;1218;3027985;-70
2021/10/01 00:17:47;;;;;;;20.20;11.70;;;;;;;8.17;54.37;100951.21;27271;1218;3054137;-66
2021/10/01 00:20:18;;;;;;;20.70;11.70;;;;;;;8.12;54.62;100955.70;27241;1217;3026549;-69
2021/10/01 00:22:47;;;;;;;20.50;10.00;;;;;;;8.09;54.61;100954.22;27226;1217;3026373;-68
2021/10/01 00:25:35;;;;;;;22.90;11.20;;;;;;;8.06;54.88;100954.45;27233;1218;3053292;-67
2021/10/01 00:28:04;;;;;;;15.90;9.60;;;;;;;8.01;54.89;100953.54;27240;1219;3026093;-68
2021/10/01 00:30:33;;;;;;;17.60;9.50;;;;;;;7.98;54.93;100955.55;27261;1221;3054202;-69
2021/10/01 00:33:02;;;;;;;16.90;9.30;;;;;;;7.99;55.02;100951.69;27214;1219;3026256;-70
2021/10/01 00:35:31;;;;;;;15.20;8.40;;;;;;;7.97;55.09;100954.34;27235;1219;3026280;-67
2021/10/01 00:38:00;;;;;;;17.10;8.60;;;;;;;7.96;55.00;100955.09;27236;1211;3025954;-69
2021/10/01 00:40:30;;;;;;;14.60;8.00;;;;;;;7.94;55.22;100951.80;27225;1219;3050556;-69
2021/10/01 00:42:59;;;;;;;14.60;7.80;;;;;;;7.91;55.18;100951.73;27248;1217;3026185;-70
2021/10/01 00:45:28;;;;;;;13.80;7.90;;;;;;;7.87;55.36;100948.86;27236;1219;3026617;-70
2021/10/01 00:47:57;;;;;;;15.40;8.30;;;;;;;7.83;55.49;100952.59;27272;1218;3050733;-70
2021/10/01 00:50:29;;;;;;;14.90;7.40;;;;;;;7.82;55.59;100956.63;27258;1219;3028405;-71
2021/10/01 00:53:01;;;;;;;13.90;6.50;;;;;;;7.77;55.88;100957.65;27194;1218;3026188;-71
2021/10/01 00:55:30;;;;;;;20.30;8.00;;;;;;;7.75;55.72;100954.56;27156;1219;3025853;-67
2021/10/01 00:58:01;;;;;;;14.20;7.40;;;;;;;7.71;55.89;100960.40;27217;1218;3026803;-70
2021/10/01 01:00:30;;;;;;;15.40;8.00;;;;;;;7.69;55.94;100955.23;27223;1219;3026535;-72
2021/10/01 01:03:02;;;;;;;13.70;7.20;;;;;;;7.68;55.82;100960.33;27275;1219;3029282;-70
2021/10/01 01:06:03;;;;;;;13.20;7.50;;;;;;;7.66;55.83;100961.05;27200;1220;3051572;-72
2021/10/01 01:08:55;;;;;;;12.80;7.50;;;;;;;7.64;55.93;100960.23;27228;1219;3055832;-69
2021/10/01 01:11:46;;;;;;;16.50;7.90;;;;;;;7.53;56.31;100961.71;27104;1221;3051633;-72
2021/10/01 01:14:18;;;;;;;13.90;7.40;;;;;;;7.51;56.35;100960.02;27200;1221;3052329;-69
2021/10/01 01:17:07;;;;;;;15.60;7.70;;;;;;;7.47;56.59;100956.14;27089;1223;3051290;-72
2021/10/01 01:19:54;;;;;;;13.10;7.60;;;;;;;7.45;56.73;100956.16;27148;1221;3026483;-71
2021/10/01 01:22:52;;;;;;;14.70;8.40;;;;;;;7.44;56.79;100957.39;27166;1221;3051566;-70
2021/10/01 01:25:53;;;;;;;16.00;7.90;;;;;;;7.45;56.78;100952.85;27179;1223;3051605;-71
2021/10/01 01:28:40;;;;;;;15.40;7.70;;;;;;;7.42;56.97;100950.67;27244;1221;3052558;-72
2021/10/01 01:31:39;;;;;;;21.50;8.50;;;;;;;7.41;57.10;100949.45;27205;1220;3056188;-69
2021/10/01 01:34:08;;;;;;;20.80;7.90;;;;;;;7.39;57.36;100948.27;27136;1222;3049158;-72
2021/10/01 01:36:38;;;;;;;14.70;9.30;;;;;;;7.37;57.29;100945.37;27101;1223;3026316;-69
2021/10/01 01:39:07;;;;;;;14.90;8.50;;;;;;;7.34;57.67;100945.79;27141;1214;3026149;-70
2021/10/01 01:41:36;;;;;;;17.50;8.20;;;;;;;7.31;57.58;100945.49;27201;1221;3048859;-70
2021/10/01 01:44:09;;;;;;;16.50;8.80;;;;;;;7.34;57.22;100948.23;27080;1222;3027948;-71
2021/10/01 01:46:41;;;;;;;21.10;7.60;;;;;;;7.32;57.57;100950.02;27157;1222;3026878;-71
2021/10/01 01:49:12;;;;;;;15.80;7.80;;;;;;;7.28;57.77;100956.20;27137;1219;3067907;-69
2021/10/01 01:51:42;;;;;;;16.60;7.60;;;;;;;7.26;57.84;100951.55;27239;1219;3026961;-70
2021/10/01 01:54:11;;;;;;;15.80;8.10;;;;;;;7.23;58.01;100952.33;27238;1219;3026519;-69
2021/10/01 01:56:43;;;;;;;15.60;7.60;;;;;;;7.20;58.27;100957.98;27195;1220;3067327;-69
2021/10/01 01:59:12;;;;;;;14.00;7.70;;;;;;;7.18;58.20;100955.06;27152;1221;3026055;-73
2021/10/01 02:01:43;;;;;;;14.40;7.70;;;;;;;7.18;58.20;100953.66;27224;1220;3028079;-71
2021/10/01 02:04:16;;;;;;;20.90;8.00;;;;;;;7.16;58.16;100958.58;27200;1220;3027089;-73
2021/10/01 02:06:45;;;;;;;15.90;7.90;;;;;;;7.16;58.44;100958.23;27207;1219;3025799;-71
2021/10/01 02:09:16;;;;;;;15.40;8.30;;;;;;;7.14;58.75;100962.11;27233;1218;3025790;-71
2021/10/01 02:11:55;;;;;;;19.30;8.10;;;;;;;7.12;58.82;100960.77;27213;1218;3054890;-68
2021/10/01 02:14:25;;;;;;;15.10;8.40;;;;;;;7.12;58.57;100961.98;27167;1220;3026558;-71
2021/10/01 02:17:07;;;;;;;18.40;8.50;;;;;;;7.09;58.83;100961.70;27183;1220;3051547;-72
2021/10/01 02:19:37;;;;;;;19.80;8.80;;;;;;;7.04;58.75;100959.89;27181;1221;3027237;-71
2021/10/01 02:22:06;;;;;;;17.50;8.20;;;;;;;7.02;58.80;100959.40;27155;1220;3026078;-68
2021/10/01 02:24:37;;;;;;;17.00;8.40;;;;;;;7.00;58.65;100961.19;27197;1219;3027005;-73
2021/10/01 02:27:06;;;;;;;15.70;8.40;;;;;;;7.02;58.38;100959.23;27198;1219;3026101;-71
2021/10/01 02:29:44;;;;;;;13.10;7.80;;;;;;;7.04;58.28;100960.42;27225;1218;3027701;-68
2021/10/01 02:32:28;;;;;;;16.50;8.20;;;;;;;7.04;58.18;100960.23;27196;1219;3070951;-68
2021/10/01 02:34:57;;;;;;;19.00;8.00;;;;;;;7.03;58.36;100964.42;27257;1219;3051318;-69
2021/10/01 02:37:26;;;;;;;12.70;7.40;;;;;;;7.02;58.40;100964.63;27256;1218;3027830;-72
2021/10/01 02:39:56;;;;;;;18.20;8.10;;;;;;;7.01;58.35;100964.65;27225;1219;3028086;-70
2021/10/01 02:42:25;;;;;;;16.80;8.80;;;;;;;7.04;58.21;100965.29;27262;1218;3029655;-69
2021/10/01 02:44:55;;;;;;;18.50;9.10;;;;;;;7.02;58.40;100970.02;27178;1220;3053459;-69
2021/10/01 02:47:29;;;;;;;15.80;8.50;;;;;;;7.02;58.39;100967.43;27219;1219;3026895;-72
2021/10/01 02:49:59;;;;;;;17.60;9.20;;;;;;;7.02;58.54;100968.80;27150;1220;3058266;-71
2021/10/01 02:52:31;;;;;;;17.80;9.30;;;;;;;7.01;58.48;100965.70;27204;1220;3026368;-69
2021/10/01 02:55:29;;;;;;;16.60;8.50;;;;;;;6.98;58.84;100967.68;27225;1219;3053149;-70
2021/10/01 02:58:00;;;;;;;19.60;9.10;;;;;;;6.96;58.98;100962.67;27218;1218;3053931;-69
2021/10/01 03:00:29;;;;;;;15.10;8.60;;;;;;;6.93;59.16;100961.34;27211;1218;3027294;-71
2021/10/01 03:02:58;;;;;;;17.70;9.10;;;;;;;6.90;59.00;100963.34;27202;1218;3026203;-69
2021/10/01 03:05:28;;;;;;;19.20;8.80;;;;;;;6.88;59.12;100966.85;27188;1213;3026110;-67
2021/10/01 03:07:58;;;;;;;19.20;8.80;;;;;;;6.86;59.16;100967.77;27255;1219;3026190;-70
2021/10/01 03:10:28;;;;;;;17.00;8.30;;;;;;;6.84;59.39;100972.52;27216;1220;3048416;-71
2021/10/01 03:12:58;;;;;;;16.70;9.10;;;;;;;6.81;59.52;100973.98;27191;1219;3025867;-74
2021/10/01 03:15:37;;;;;;;14.70;8.60;;;;;;;6.81;59.61;100978.33;27162;1220;3053909;-72
2021/10/01 03:18:07;;;;;;;15.20;8.70;;;;;;;6.80;59.98;100975.39;27204;1218;3026087;-70
2021/10/01 03:20:36;;;;;;;18.70;9.00;;;;;;;6.76;60.27;100975.83;27225;1219;3026776;-73
2021/10/01 03:23:07;;;;;;;22.50;8.80;;;;;;;6.73;60.16;100974.30;27222;1218;3053486;-72
2021/10/01 03:25:38;;;;;;;17.00;8.30;;;;;;;6.72;60.32;100977.65;27174;1220;3026052;-72
2021/10/01 03:28:08;;;;;;;19.60;9.30;;;;;;;6.68;61.19;100975.98;27209;1218;3026568;-72
2021/10/01 03:30:39;;;;;;;14.00;9.30;;;;;;;6.66;61.15;100978.12;27225;1220;3026577;-70
2021/10/01 03:33:08;;;;;;;12.30;8.10;;;;;;;6.60;61.43;100982.77;27224;1218;3025996;-73
2021/10/01 03:35:42;;;;;;;25.00;9.40;;;;;;;6.62;61.17;100979.42;27201;1221;3027274;-72
2021/10/01 03:38:12;;;;;;;22.30;9.00;;;;;;;6.60;61.16;100981.71;27255;1219;3026142;-71
2021/10/01 03:40:44;;;;;;;15.80;9.00;;;;;;;6.58;61.29;100987.16;27251;1219;3026327;-74
2021/10/01 03:43:14;;;;;;;22.80;8.40;;;;;;;6.52;61.96;100985.86;27210;1220;3027063;-70
2021/10/01 03:45:45;;;;;;;16.30;9.00;;;;;;;6.45;62.14;100984.10;27210;1219;3027568;-71
2021/10/01 03:48:14;;;;;;;18.60;9.30;;;;;;;6.37;62.56;100984.95;27230;1219;3026049;-73
2021/10/01 03:51:03;;;;;;;15.70;8.80;;;;;;;6.37;62.76;100988.42;27226;1218;3053863;-70
2021/10/01 03:53:34;;;;;;;23.90;9.50;;;;;;;6.36;62.67;100986.17;27296;1218;3026054;-73
2021/10/01 03:56:04;;;;;;;17.50;9.20;;;;;;;6.40;62.48;100981.40;27238;1219;3028260;-75
2021/10/01 03:58:35;;;;;;;23.50;10.00;;;;;;;6.43;62.26;100986.40;27251;1217;3053248;-74
2021/10/01 04:01:04;;;;;;;21.30;8.40;;;;;;;6.41;62.41;100985.73;27218;1211;3025896;-71
2021/10/01 04:03:35;;;;;;;16.60;8.00;;;;;;;6.43;62.13;100988.13;27220;1219;3054200;-72
2021/10/01 04:06:05;;;;;;;19.70;8.90;;;;;;;6.46;62.06;100989.98;27241;1211;3026098;-72
2021/10/01 04:08:34;;;;;;;25.90;8.70;;;;;;;6.48;61.91;100989.77;27250;1218;3046836;-72
2021/10/01 04:11:04;;;;;;;14.60;7.80;;;;;;;6.53;61.62;100987.93;27240;1217;3026527;-70
2021/10/01 04:13:33;;;;;;;15.10;8.20;;;;;;;6.61;61.06;100989.52;27226;1218;3027871;-73
2021/10/01 04:16:02;;;;;;;21.00;8.80;;;;;;;6.70;60.71;100991.60;27207;1219;3048076;-76
2021/10/01 04:18:34;;;;;;;15.90;8.00;;;;;;;6.76;60.73;100988.52;27234;1219;3027293;-73
2021/10/01 04:21:04;;;;;;;15.20;7.30;;;;;;;6.78;60.40;100990.06;27217;1219;3026399;-75
2021/10/01 04:23:33;;;;;;;18.60;7.70;;;;;;;6.82;59.73;100991.69;27223;1219;3025755;-76
2021/10/01 04:26:16;;;;;;;15.70;8.10;;;;;;;6.88;59.84;100993.84;27219;1219;3052134;-72
2021/10/01 04:28:45;;;;;;;12.70;7.40;;;;;;;6.97;59.30;100994.20;27255;1219;3026439;-74
2021/10/01 04:31:15;;;;;;;17.10;7.60;;;;;;;7.06;58.68;100993.64;27232;1219;3026429;-72
2021/10/01 04:33:44;;;;;;;12.50;7.10;;;;;;;7.14;58.43;100992.61;27217;1219;3027592;-70
2021/10/01 04:36:13;;;;;;;16.20;7.60;;;;;;;7.16;58.35;100994.30;27234;1219;3054757;-73
2021/10/01 04:38:43;;;;;;;13.70;7.60;;;;;;;7.22;58.12;100996.08;27201;1219;3026322;-72
2021/10/01 04:41:12;;;;;;;17.40;7.40;;;;;;;7.29;58.11;100994.38;27222;1219;3025875;-69
2021/10/01 04:43:41;;;;;;;19.30;7.50;;;;;;;7.35;57.89;100997.90;27184;1220;3054326;-70
2021/10/01 04:46:22;;;;;;;14.10;7.30;;;;;;;7.39;57.95;100995.16;27367;1219;3051404;-74
2021/10/01 04:48:51;;;;;;;12.80;6.70;;;;;;;7.46;57.77;100995.89;27272;1213;3026273;-71
2021/10/01 04:51:25;;;;;;;13.20;6.80;;;;;;;7.57;57.37;100998.06;27260;1217;3048307;-72
2021/10/01 04:53:54;;;;;;;15.80;7.30;;;;;;;7.65;56.97;100998.59;27239;1218;3028550;-72
2021/10/01 04:56:24;;;;;;;15.90;7.60;;;;;;;7.70;56.81;100999.34;27239;1217;3026580;-73
2021/10/01 04:58:53;;;;;;;18.50;7.40;;;;;;;7.70;56.77;101001.77;27160;1225;3047252;-72
2021/10/01 05:01:22;;;;;;;13.10;7.20;;;;;;;7.76;56.80;101006.67;27211;1216;3028149;-69
2021/10/01 05:04:10;;;;;;;14.40;6.90;;;;;;;7.87;56.61;101010.27;27186;1219;3067167;-73
2021/10/01 05:06:41;;;;;;;12.90;6.70;;;;;;;7.89;56.35;101013.69;27224;1219;3025994;-71
2021/10/01 05:09:22;;;;;;;14.00;6.30;;;;;;;7.93;56.50;101015.89;27263;1219;3051202;-71
2021/10/01 05:12:10;;;;;;;11.70;6.90;;;;;;;7.97;56.33;101017.15;27208;1220;3070407;-73
2021/10/01 05:14:57;;;;;;;10.80;6.10;;;;;;;7.99;56.40;101017.13;27237;1218;3048649;-70
2021/10/01 05:17:51;;;;;;;11.60;6.10;;;;;;;8.03;56.25;101016.31;27241;1219;3054381;-70
2021/10/01 05:20:49;;;;;;;13.50;6.40;;;;;;;8.04;56.09;101021.18;27104;1223;3052142;-73
2021/10/01 05:23:27;;;;;;;10.10;5.70;;;;;;;8.16;55.93;101022.27;27236;1218;3058879;-72
2021/10/01 05:25:56;;;;;;;12.60;5.70;;;;;;;8.27;55.47;101023.04;27228;1218;3027120;-71
2021/10/01 05:28:26;;;;;;;15.10;6.50;;;;;;;8.38;55.22;101026.59;27178;1219;3052500;-71
2021/10/01 05:30:55;;;;;;;12.60;5.90;;;;;;;8.44;54.87;101028.89;27245;1219;3028504;-72
2021/10/01 05:33:25;;;;;;;9.80;5.80;;;;;;;8.52;55.04;101030.60;27214;1218;3051827;-72
2021/10/01 05:35:56;;;;;;;10.70;5.70;;;;;;;8.63;54.60;101028.20;27279;1218;3026399;-69
2021/10/01 05:38:25;;;;;;;11.70;5.90;;;;;;;8.71;54.20;101033.05;27211;1217;3026380;-73
2021/10/01 05:41:07;;;;;;;12.10;5.80;;;;;;;8.80;54.23;101036.64;27263;1218;3054192;-69
2021/10/01 05:43:37;;;;;;;11.50;5.60;;;;;;;8.85;54.02;101033.89;27238;1218;3027459;-75
2021/10/01 05:46:07;;;;;;;10.60;5.20;;;;;;;8.95;53.74;101035.36;27247;1218;3026152;-71
2021/10/01 05:48:59;;;;;;;11.40;5.10;;;;;;;9.03;52.97;101033.71;27211;1219;3054817;-71
2021/10/01 05:54:56;;;;;;;10.80;4.70;;;;;;;9.13;52.41;101032.21;27215;1219;3056918;-71
2021/10/01 05:58:04;;;;;;;18.30;4.40;;;;;;;9.23;52.14;101032.41;27181;1222;3051173;-70
2021/10/01 06:00:46;;;;;;;9.90;4.80;;;;;;;9.32;51.85;101031.46;27138;1222;3055892;-71
2021/10/01 06:03:16;;;;;;;9.10;5.00;;;;;;;9.41;52.02;101034.17;27082;1222;3025875;-70
2021/10/01 06:05:45;;;;;;;9.30;4.70;;;;;;;9.52;51.79;101034.69;27144;1222;3049410;-69
2021/10/01 06:08:14;;;;;;;10.90;5.40;;;;;;;9.60;51.48;101029.19;27117;1222;3026686;-70
2021/10/01 06:10:44;;;;;;;15.90;4.90;;;;;;;9.66;51.49;101031.82;27114;1222;3057093;-71
2021/10/01 06:13:14;;;;;;;11.90;4.70;;;;;;;9.81;51.47;101033.45;27138;1216;3025946;-70
2021/10/01 06:15:43;;;;;;;10.50;4.60;;;;;;;9.90;50.85;101032.27;27079;1222;3052661;-71
2021/10/01 06:18:12;;;;;;;12.20;4.30;;;;;;;9.99;50.34;101034.77;27064;1222;3026630;-71
2021/10/01 06:20:42;;;;;;;13.50;4.60;;;;;;;10.05;49.90;101036.13;27099;1222;3026100;-71
2021/10/01 06:23:12;;;;;;;12.30;5.20;;;;;;;10.12;49.49;101036.96;27176;1221;3053834;-69
2021/10/01 06:25:44;;;;;;;10.30;4.90;;;;;;;10.22;49.35;101040.12;27149;1222;3027626;-71
2021/10/01 06:28:22;;;;;;;11.20;5.40;;;;;;;10.33;49.79;101037.66;27150;1218;3051813;-73
2021/10/01 06:30:51;;;;;;;10.70;4.90;;;;;;;10.44;50.13;101041.52;27238;1219;3027395;-71
2021/10/01 06:33:19;;;;;;;8.70;4.70;;;;;;;10.52;49.34;101043.00;27312;1218;3056714;-71
2021/10/01 06:35:49;;;;;;;9.40;5.00;;;;;;;10.57;49.55;101042.09;27238;1218;3027701;-68
2021/10/01 06:38:18;;;;;;;14.10;5.30;;;;;;;10.70;49.74;101048.13;27254;1219;3028905;-72
2021/10/01 06:40:48;;;;;;;11.20;4.40;;;;;;;10.79;49.68;101048.67;27223;1219;3058772;-71
2021/10/01 06:43:18;;;;;;;9.50;4.40;;;;;;;10.87;49.37;101048.90;27222;1219;3025820;-71
2021/10/01 06:45:58;;;;;;;9.70;5.00;;;;;;;10.94;48.96;101054.29;27217;1219;3054673;-70
2021/10/01 06:51:22;;;;;;;10.90;5.30;;;;;;;11.12;49.00;101048.35;27177;1219;3052410;-68
2021/10/01 08:21:04;;;;;;;5.80;2.50;;;;;;;13.78;39.31;101002.29;27199;1219;3053532;-68
2021/10/01 08:23:33;;;;;;;3.40;1.90;;;;;;;13.83;39.38;100999.20;27297;1217;3026020;-69
2021/10/01 08:26:03;;;;;;;6.90;2.10;;;;;;;13.96;39.17;100997.85;27265;1219;3026230;-71
2021/10/01 08:28:32;;;;;;;4.00;2.00;;;;;;;14.08;39.08;100991.59;27240;1218;3051458;-67
2021/10/01 08:31:12;;;;;;;4.20;2.20;;;;;;;14.08;38.77;100989.65;27276;1209;3054287;-70
2021/10/01 08:33:43;;;;;;;6.70;2.20;;;;;;;14.09;39.18;100990.15;27298;1218;3027826;-73
2021/10/01 08:36:13;;;;;;;7.80;2.20;;;;;;;14.12;39.20;100992.46;27251;1219;3026033;-69
2021/10/01 08:38:48;;;;;;;9.00;2.10;;;;;;;14.22;38.67;100986.50;27246;1219;3055014;-68
2021/10/01 08:41:17;;;;;;;7.80;2.30;;;;;;;14.34;38.46;100985.52;27251;1218;3026857;-69
2021/10/01 08:43:46;;;;;;;7.40;2.00;;;;;;;14.41;38.57;100981.42;27230;1219;3054229;-69
2021/10/01 08:48:17;;;;;;;5.90;1.90;;;;;;;14.55;38.91;100979.50;34344;1219;3025850;-72
2021/10/01 08:50:47;;;;;;;5.40;2.60;;;;;;;14.88;38.21;100976.67;27200;1219;3025905;-65
2021/10/01 08:53:18;;;;;;;6.90;2.30;;;;;;;15.14;36.39;100968.58;27446;1218;3026483;-68
2021/10/01 08:55:49;;;;;;;10.10;2.30;;;;;;;15.04;36.74;100969.81;27332;1218;3026481;-71
2021/10/01 08:58:21;;;;;;;6.60;2.40;;;;;;;15.11;36.61;100971.74;27275;1217;3026173;-67
2021/10/01 09:00:50;;;;;;;6.90;2.90;;;;;;;15.13;36.82;100972.70;27223;1217;3025929;-67
2021/10/01 09:03:20;;;;;;;4.60;2.20;;;;;;;15.05;37.40;100967.11;27295;1217;3026017;-68
2021/10/01 09:05:50;;;;;;;3.70;2.30;;;;;;;15.08;37.89;100963.59;27296;1218;3026326;-68
2021/10/01 09:08:20;;;;;;;6.40;2.60;;;;;;;15.18;38.00;100963.70;27300;1218;3026374;-67
2021/10/01 09:11:04;;;;;;;6.80;2.40;;;;;;;15.21;37.62;100964.98;27296;1218;3051959;-70
2021/10/01 09:13:41;;;;;;;9.10;2.60;;;;;;;15.34;37.41;100962.14;27325;1217;3070548;-70
2021/10/01 09:16:30;;;;;;;6.50;2.40;;;;;;;15.36;36.92;100965.36;27249;1218;3048978;-70
2021/10/01 09:18:59;;;;;;;5.30;2.40;;;;;;;15.33;37.32;100960.10;27309;1209;3026570;-70
2021/10/01 09:21:30;;;;;;;5.40;2.10;;;;;;;15.49;36.95;100957.98;27363;1216;3028485;-70
2021/10/01 09:24:00;;;;;;;2.60;2.00;;;;;;;15.60;36.61;100949.54;27366;1219;3047653;-71
2021/10/01 09:26:30;;;;;;;2.90;2.30;;;;;;;15.60;36.09;100946.71;27318;1219;3026151;-70
2021/10/01 09:29:00;;;;;;;4.40;1.90;;;;;;;15.58;36.00;100944.86;27295;1218;3027563;-68
2021/10/01 09:31:33;;;;;;;6.80;2.20;;;;;;;15.60;36.06;100945.45;27312;1213;3025944;-67
2021/10/01 09:34:03;;;;;;;2.90;2.10;;;;;;;15.67;36.53;100942.58;27258;1217;3026106;-66
2021/10/01 09:36:33;;;;;;;6.20;2.10;;;;;;;15.66;36.68;100944.59;27295;1217;3029330;-72
2021/10/01 09:39:02;;;;;;;4.90;2.40;;;;;;;15.76;36.86;100940.48;27309;1216;3026139;-66
2021/10/01 09:41:36;;;;;;;7.20;2.40;;;;;;;15.94;36.34;100940.32;27303;1212;3026448;-63
2021/10/01 09:44:10;;;;;;;2.80;1.80;;;;;;;16.12;35.81;100936.40;27308;1201;3048625;-66
2021/10/01 09:46:42;;;;;;;2.80;1.90;;;;;;;16.17;35.12;100931.01;27304;1217;3053814;-69
2021/10/01 09:49:14;;;;;;;4.80;2.00;;;;;;;16.25;34.93;100930.14;27326;1217;3026371;-66
2021/10/01 09:51:52;;;;;;;3.80;2.00;;;;;;;16.29;34.92;100925.14;27261;1218;3028195;-66
2021/10/01 09:54:24;;;;;;;7.10;2.30;;;;;;;16.28;34.50;100922.40;27246;1218;3048932;-67
2021/10/01 09:56:55;;;;;;;4.10;2.00;;;;;;;16.27;35.01;100924.58;27316;1217;3026212;-67
2021/10/01 09:59:24;;;;;;;2.20;1.70;;;;;;;16.41;34.67;100921.37;27285;1217;3026285;-68
2021/10/01 10:01:56;;;;;;;4.90;1.60;;;;;;;16.56;33.96;100922.74;27262;1218;3028251;-71
2021/10/01 10:04:30;;;;;;;5.90;1.60;;;;;;;16.61;33.72;100916.81;27325;1217;3051559;-69
2021/10/01 10:07:19;;;;;;;3.00;2.30;;;;;;;16.56;33.86;100915.69;27274;1217;3050287;-69
2021/10/01 10:10:07;;;;;;;3.30;1.80;;;;;;;16.69;33.92;100916.48;27278;1217;3071293;-69
2021/10/01 10:12:39;;;;;;;6.20;1.80;;;;;;;16.74;33.91;100913.35;27254;1217;3049115;-73
2021/10/01 10:15:13;;;;;;;2.40;1.80;;;;;;;16.90;34.12;100913.40;27251;1218;3025953;-68
2021/10/01 10:18:01;;;;;;;7.90;2.20;;;;;;;16.71;33.63;100908.20;27238;1217;3052363;-69
2021/10/01 10:20:34;;;;;;;3.40;1.90;;;;;;;16.68;33.88;100909.98;27282;1217;3026147;-69
2021/10/01 10:23:04;;;;;;;4.70;2.30;;;;;;;16.87;33.23;100907.06;27292;1217;3026597;-68
2021/10/01 10:25:34;;;;;;;7.40;1.70;;;;;;;16.99;33.00;100909.30;27242;1217;3026513;-67
2021/10/01 10:28:11;;;;;;;4.70;2.30;;;;;;;17.08;32.73;100907.33;27269;1218;3058179;-64
2021/10/01 10:30:41;;;;;;;5.80;2.40;;;;;;;17.12;32.65;100904.73;27261;1217;3026325;-66
2021/10/01 10:33:35;;;;;;;4.60;1.70;;;;;;;17.16;33.17;100904.65;27244;1209;3027196;-73
2021/10/01 10:36:49;;;;;;;4.70;1.90;;;;;;;17.11;33.35;100902.83;27351;1218;3058371;-66
2021/10/01 10:39:33;;;;;;;9.50;1.90;;;;;;;17.04;34.01;100905.61;27231;1221;3049437;-69
2021/10/01 10:42:02;;;;;;;5.40;2.20;;;;;;;17.22;33.04;100911.17;27333;1221;3055727;-71
2021/10/01 10:45:01;;;;;;;3.80;1.90;;;;;;;17.31;32.94;100910.55;27564;1212;3026761;-72
2021/10/01 10:47:46;;;;;;;2.50;1.80;;;;;;;17.34;32.61;100908.27;27110;1225;3049366;-72
2021/10/01 10:50:21;;;;;;;4.70;1.70;;;;;;;17.51;32.57;100907.88;27177;1224;3055421;-69
2021/10/01 10:53:25;;;;;;;7.10;2.00;;;;;;;17.61;32.54;100907.88;27088;1223;3052989;-67
2021/10/01 10:56:06;;;;;;;2.20;1.90;;;;;;;17.56;31.89;100906.44;27031;1228;3069625;-68
2021/10/01 10:58:37;;;;;;;5.10;2.00;;;;;;;17.48;32.12;100904.52;27049;1228;3049853;-70
2021/10/01 11:01:12;;;;;;;5.10;1.70;;;;;;;17.56;32.02;100904.18;26994;1227;3026068;-69
2021/10/01 11:03:44;;;;;;;3.20;2.10;;;;;;;17.62;32.61;100900.55;27056;1228;3053348;-67
2021/10/01 11:06:14;;;;;;;5.80;2.00;;;;;;;17.76;32.35;100901.92;27056;1228;3025894;-68
2021/10/01 11:08:53;;;;;;;4.50;1.80;;;;;;;17.77;32.30;100896.91;27013;1227;3054915;-67
2021/10/01 11:11:35;;;;;;;4.50;2.00;;;;;;;17.77;31.83;100886.28;26980;1228;3051832;-68
2021/10/01 11:14:14;;;;;;;2.90;1.60;;;;;;;17.81;32.01;100893.05;27066;1225;3059077;-68
2021/10/01 11:17:07;;;;;;;6.60;1.80;;;;;;;17.92;32.24;100887.55;27066;1224;3051715;-69
2021/10/01 11:19:56;;;;;;;6.40;2.10;;;;;;;17.88;32.52;100886.05;27109;1225;3052959;-71
2021/10/01 11:22:37;;;;;;;4.60;1.70;;;;;;;17.87;32.27;100881.64;27109;1224;3026531;-66
2021/10/01 11:25:17;;;;;;;4.50;1.70;;;;;;;17.95;31.73;100878.15;27209;1222;3049847;-68
2021/10/01 11:27:47;;;;;;;2.70;1.90;;;;;;;17.97;31.74;100872.89;27229;1221;3055742;-70
2021/10/01 11:30:16;;;;;;;4.80;1.90;;;;;;;17.96;32.07;100873.84;27240;1215;3027074;-69
2021/10/01 11:32:45;;;;;;;2.50;1.80;;;;;;;18.07;31.66;100873.40;27265;1217;3048519;-71
2021/10/01 11:35:16;;;;;;;7.00;1.80;;;;;;;18.07;31.57;100875.67;27304;1218;3025815;-66
2021/10/01 11:37:48;;;;;;;2.60;1.50;;;;;;;18.20;30.96;100876.39;27308;1217;3053824;-67
2021/10/01 11:40:20;;;;;;;3.30;2.00;;;;;;;18.24;30.94;100872.59;27249;1218;3026509;-67
2021/10/01 11:42:52;;;;;;;6.50;2.10;;;;;;;18.27;31.26;100870.27;27407;1218;3027575;-70
2021/10/01 11:45:24;;;;;;;5.00;1.60;;;;;;;18.30;31.45;100866.11;27353;1217;3026492;-70
2021/10/01 11:47:56;;;;;;;2.60;1.80;;;;;;;18.19;31.40;100867.42;27320;1217;3068107;-70
2021/10/01 11:50:45;;;;;;;8.10;1.80;;;;;;;18.14;31.45;100867.65;27337;1218;3026599;-71
2021/10/01 11:53:23;;;;;;;3.70;1.80;;;;;;;18.49;30.84;100864.46;27310;1218;3053039;-67
2021/10/01 11:55:53;;;;;;;8.40;1.60;;;;;;;18.57;30.91;100861.05;27308;1217;3052356;-67
2021/10/01 11:58:23;;;;;;;8.20;2.00;;;;;;;18.62;30.79;100859.08;27343;1218;3027696;-68
2021/10/01 12:00:53;;;;;;;5.00;1.70;;;;;;;18.60;31.28;100856.76;27290;1210;3026515;-66
2021/10/01 12:03:24;;;;;;;4.60;1.80;;;;;;;18.68;30.74;100853.83;27329;1217;3027120;-70
2021/10/01 12:05:55;;;;;;;7.30;2.00;;;;;;;18.70;30.24;100852.27;27340;1217;3026506;-67
2021/10/01 12:08:29;;;;;;;4.80;2.10;;;;;;;18.81;30.54;100855.56;27276;1218;3025970;-70
2021/10/01 12:10:59;;;;;;;4.10;2.10;;;;;;;18.83;30.68;100856.15;27293;1217;3027329;-68
2021/10/01 12:13:44;;;;;;;3.80;1.90;;;;;;;18.94;30.25;100847.75;27349;1217;3054290;-70
2021/10/01 12:16:14;;;;;;;9.00;1.90;;;;;;;19.11;29.43;100844.69;27319;1222;3026400;-72
2021/10/01 12:18:44;;;;;;;7.00;2.00;;;;;;;19.21;29.20;100845.59;27286;1209;3026497;-69
2021/10/01 12:21:16;;;;;;;4.40;1.90;;;;;;;19.23;28.86;100846.24;27259;1217;3025951;-69
2021/10/01 12:23:48;;;;;;;4.10;2.30;;;;;;;19.27;28.44;100844.71;27245;1217;3026138;-70
2021/10/01 12:26:34;;;;;;;4.40;1.90;;;;;;;19.31;28.34;100842.67;27303;1218;3027262;-69
2021/10/01 12:29:10;;;;;;;6.20;1.80;;;;;;;19.28;28.35;100845.57;27279;1218;3070682;-68
2021/10/01 12:31:50;;;;;;;3.40;1.40;;;;;;;19.35;28.40;100836.73;27286;1218;3051253;-64
2021/10/01 12:34:20;;;;;;;9.80;1.80;;;;;;;19.33;28.32;100840.52;27263;1209;3054391;-71
2021/10/01 12:37:18;;;;;;;6.90;1.70;;;;;;;19.22;28.55;100843.02;27336;1218;3026242;-69
2021/10/01 12:39:54;;;;;;;5.70;1.60;;;;;;;19.21;28.49;100843.09;27303;1219;3056479;-70
2021/10/01 12:42:25;;;;;;;5.20;1.60;;;;;;;19.28;28.50;100839.88;27231;1219;3049185;-65
2021/10/01 12:45:01;;;;;;;5.80;1.90;;;;;;;19.26;28.04;100844.09;27270;1219;3026398;-67
2021/10/01 12:47:38;;;;;;;4.40;1.80;;;;;;;19.30;28.21;100842.23;27299;1219;3051842;-71
2021/10/01 12:50:12;;;;;;;8.90;2.00;;;;;;;19.26;28.69;100841.10;27278;1219;3070464;-72
2021/10/01 12:53:02;;;;;;;5.20;1.60;;;;;;;19.32;28.87;100838.65;27333;1219;3047751;-70
2021/10/01 12:55:33;;;;;;;8.60;2.20;;;;;;;19.39;28.66;100837.25;27220;1219;3054082;-67
2021/10/01 12:58:03;;;;;;;3.40;1.60;;;;;;;19.51;28.30;100829.64;27280;1219;3025854;-67
2021/10/01 13:00:34;;;;;;;8.80;1.90;;;;;;;19.48;28.21;100829.80;27231;1211;3025834;-66
2021/10/01 13:03:05;;;;;;;4.70;2.00;;;;;;;19.62;27.93;100828.58;27355;1219;3053651;-68
2021/10/01 13:05:41;;;;;;;4.70;1.70;;;;;;;19.79;27.80;100827.24;27268;1219;3051761;-68
2021/10/01 13:08:13;;;;;;;8.40;1.90;;;;;;;19.86;28.18;100829.95;27257;1219;3026007;-69
2021/10/01 13:10:50;;;;;;;8.80;2.10;;;;;;;19.92;28.17;100826.48;27213;1219;3026820;-67
2021/10/01 13:13:22;;;;;;;5.60;2.00;;;;;;;20.01;27.55;100822.44;27276;1220;3053159;-66
2021/10/01 13:15:55;;;;;;;8.10;2.10;;;;;;;19.93;27.85;100820.91;27293;1218;3053556;-65